createdAt,value
2019-01-19T00:02:14.854Z,0.40
2019-01-19T00:05:38.354Z,0.30
2019-01-19T00:08:22.689Z,0.30
2019-01-19T00:11:28.533Z,0.30
2019-01-19T00:14:15.107Z,0.30
2019-01-19T00:17:22.102Z,0.30
2019-01-19T00:20:35.421Z,0.40
2019-01-19T00:24:01.789Z,0.30
2019-01-19T00:27:00.985Z,0.30
2019-01-19T00:30:33.255Z,0.30
2019-01-19T00:33:32.196Z,0.30
2019-01-19T00:36:30.097Z,0.30
2019-01-19T00:39:35.802Z,0.20
2019-01-19T00:42:41.665Z,0.30
2019-01-19T00:45:52.600Z,0.30
2019-01-19T00:48:33.451Z,0.30
2019-01-19T00:52:02.414Z,0.30
2019-01-19T00:54:51.091Z,0.30
2019-01-19T00:58:08.129Z,0.30
2019-01-19T01:00:43.989Z,0.40
2019-01-19T01:03:32.473Z,0.40
2019-01-19T01:06:34.505Z,0.30
2019-01-19T01:09:29.446Z,0.30
2019-01-19T01:12:43.282Z,0.40
2019-01-19T01:16:00.401Z,0.40
2019-01-19T01:18:48.653Z,0.40
2019-01-19T01:21:45.853Z,0.40
2019-01-19T01:24:49.782Z,0.40
2019-01-19T01:27:47.225Z,0.30
2019-01-19T01:31:03.318Z,0.30
2019-01-19T01:34:08.494Z,0.30
2019-01-19T01:36:52.642Z,0.20
2019-01-19T01:40:15.829Z,0.20
2019-01-19T01:43:32.830Z,0.10
2019-01-19T01:46:49.749Z,0.20
2019-01-19T01:49:50.593Z,0.20
2019-01-19T01:53:11.878Z,0.10
2019-01-19T01:55:47.641Z,0.10
2019-01-19T01:58:33.630Z,0.10
2019-01-19T02:04:31.466Z,0.10
2019-01-19T02:07:31.402Z,0.10
2019-01-19T02:11:00.392Z,0.10
2019-01-19T02:14:01.355Z,0.10
2019-01-19T02:17:10.679Z,0.00
2019-01-19T02:20:19.500Z,-0.10
2019-01-19T02:23:06.913Z,0.00
2019-01-19T02:26:20.225Z,0.00
2019-01-19T02:29:32.810Z,0.00
2019-01-19T02:32:33.931Z,0.00
2019-01-19T02:35:27.517Z,-0.10
2019-01-19T02:38:32.538Z,-0.10
2019-01-19T02:41:27.391Z,-0.10
2019-01-19T02:44:37.397Z,-0.20
2019-01-19T02:47:36.113Z,-0.20
2019-01-19T02:50:27.083Z,-0.20
2019-01-19T02:53:39.863Z,-0.30
2019-01-19T02:56:46.550Z,-0.30
2019-01-19T02:59:31.622Z,-0.40
2019-01-19T03:02:09.866Z,-0.40
2019-01-19T03:05:04.442Z,-0.40
2019-01-19T03:08:06.341Z,-0.40
2019-01-19T03:10:55.219Z,-0.40
2019-01-19T03:13:54.190Z,-0.40
2019-01-19T03:16:54.620Z,-0.40
2019-01-19T03:20:00.814Z,-0.40
2019-01-19T03:23:28.402Z,-0.40
2019-01-19T03:26:35.585Z,-0.40
2019-01-19T03:29:24.100Z,-0.50
2019-01-19T03:32:44.244Z,-0.50
2019-01-19T03:35:51.042Z,-0.60
2019-01-19T03:38:55.651Z,-0.60
2019-01-19T03:42:06.262Z,-0.60
2019-01-19T03:45:08.024Z,-0.60
2019-01-19T03:47:47.385Z,-0.70
2019-01-19T03:50:55.168Z,-0.70
2019-01-19T03:53:47.842Z,-0.70
2019-01-19T03:57:10.889Z,-0.70
2019-01-19T04:00:23.806Z,-0.70
2019-01-19T04:03:22.362Z,-0.80
2019-01-19T04:06:32.848Z,-0.80
2019-01-19T04:09:28.510Z,-0.80
2019-01-19T04:12:53.966Z,-0.80
2019-01-19T04:16:03.190Z,-0.80
2019-01-19T04:18:48.609Z,-0.90
2019-01-19T04:21:41.361Z,-0.80
2019-01-19T04:24:27.414Z,-0.80
2019-01-19T04:26:58.348Z,-0.90
2019-01-19T04:29:27.810Z,-0.90
2019-01-19T04:31:57.254Z,-0.90
2019-01-19T04:34:27.196Z,-0.90
2019-01-19T04:36:56.908Z,-0.90
2019-01-19T04:39:26.527Z,-0.90
2019-01-19T04:41:56.018Z,-0.90
2019-01-19T04:44:25.509Z,-0.90
2019-01-19T04:46:54.958Z,-0.90
2019-01-19T04:49:24.413Z,-1.00
2019-01-19T04:51:53.841Z,-0.90
2019-01-19T04:54:23.278Z,-0.90
2019-01-19T04:56:52.747Z,-0.90
2019-01-19T04:59:22.173Z,-0.90
2019-01-19T05:01:52.091Z,-0.90
2019-01-19T05:04:21.528Z,-1.00
2019-01-19T05:06:50.965Z,-1.00
2019-01-19T05:09:21.744Z,-1.00
2019-01-19T05:11:51.413Z,-1.00
2019-01-19T05:14:20.858Z,-1.00
2019-01-19T05:16:50.269Z,-1.00
2019-01-19T05:19:19.714Z,-1.00
2019-01-19T05:21:49.163Z,-1.00
2019-01-19T05:24:18.570Z,-1.00
2019-01-19T05:26:48.025Z,-1.00
2019-01-19T05:29:17.448Z,-1.00
2019-01-19T05:31:46.893Z,-1.10
2019-01-19T05:34:16.334Z,-1.10
2019-01-19T05:36:45.769Z,-1.10
2019-01-19T05:39:15.208Z,-1.10
2019-01-19T05:41:44.663Z,-1.00
2019-01-19T05:44:14.109Z,-1.10
2019-01-19T05:46:43.530Z,-1.10
2019-01-19T05:49:12.954Z,-1.00
2019-01-19T05:51:42.406Z,-1.00
2019-01-19T05:54:11.877Z,-1.00
2019-01-19T05:56:48.762Z,-1.10
2019-01-19T05:59:18.349Z,-1.10
2019-01-19T06:01:47.789Z,-1.10
2019-01-19T06:04:17.449Z,-1.10
2019-01-19T06:06:47.378Z,-1.10
2019-01-19T06:09:17.196Z,-1.10
2019-01-19T06:11:46.662Z,-1.10
2019-01-19T06:14:16.090Z,-1.10
2019-01-19T06:16:45.930Z,-1.10
2019-01-19T06:19:15.896Z,-1.00
2019-01-19T06:22:01.882Z,-1.10
2019-01-19T06:24:37.798Z,-1.00
2019-01-19T06:27:07.254Z,-1.00
2019-01-19T06:29:39.327Z,-1.00
2019-01-19T06:32:08.911Z,-1.00
2019-01-19T06:34:38.337Z,-1.00
2019-01-19T06:37:07.918Z,-1.10
2019-01-19T06:39:37.348Z,-1.10
2019-01-19T06:42:10.227Z,-1.00
2019-01-19T06:44:39.694Z,-1.00
2019-01-19T06:47:09.285Z,-1.10
2019-01-19T06:49:38.730Z,-1.10
2019-01-19T06:52:08.174Z,-1.10
2019-01-19T06:54:37.886Z,-1.00
2019-01-19T06:57:07.327Z,-1.00
2019-01-19T06:59:36.759Z,-1.00
2019-01-19T07:02:06.459Z,-1.00
2019-01-19T07:04:35.918Z,-1.00
2019-01-19T07:07:05.585Z,-1.00
2019-01-19T07:09:35.093Z,-1.00
2019-01-19T07:12:05.145Z,-1.10
2019-01-19T07:14:34.587Z,-1.10
2019-01-19T07:17:16.482Z,-1.10
2019-01-19T07:19:46.138Z,-1.10
2019-01-19T07:22:15.768Z,-1.10
2019-01-19T07:24:45.194Z,-1.10
2019-01-19T07:27:14.641Z,-1.10
2019-01-19T07:29:44.070Z,-1.10
2019-01-19T07:32:13.502Z,-1.10
2019-01-19T07:34:42.933Z,-1.10
2019-01-19T07:37:12.600Z,-1.20
2019-01-19T07:39:42.022Z,-1.20
2019-01-19T07:42:11.444Z,-1.20
2019-01-19T07:44:40.893Z,-1.20
2019-01-19T07:47:10.713Z,-1.20
2019-01-19T07:49:40.145Z,-1.30
2019-01-19T07:52:09.566Z,-1.30
2019-01-19T07:54:39.000Z,-1.30
2019-01-19T07:57:08.443Z,-1.30
2019-01-19T07:59:37.854Z,-1.30
2019-01-19T08:02:07.374Z,-1.30
2019-01-19T08:04:36.850Z,-1.30
2019-01-19T08:07:06.472Z,-1.20
2019-01-19T08:09:35.898Z,-1.20
2019-01-19T08:12:05.637Z,-1.20
2019-01-19T08:14:35.243Z,-1.20
2019-01-19T08:17:04.970Z,-1.20
2019-01-19T08:19:34.422Z,-1.20
2019-01-19T08:22:03.906Z,-1.20
2019-01-19T08:24:33.330Z,-1.20
2019-01-19T08:27:02.810Z,-1.10
2019-01-19T08:29:32.239Z,-1.10
2019-01-19T08:32:01.907Z,-1.10
2019-01-19T08:34:31.337Z,-1.10
2019-01-19T08:37:01.833Z,-1.00
2019-01-19T08:39:31.449Z,-1.00
2019-01-19T08:42:00.894Z,-0.90
2019-01-19T08:44:30.330Z,-0.90
2019-01-19T08:46:59.758Z,-0.80
2019-01-19T08:49:29.226Z,-0.70
2019-01-19T08:51:58.701Z,-0.70
2019-01-19T08:54:28.121Z,-0.60
2019-01-19T08:56:57.569Z,-0.50
2019-01-19T08:59:27.020Z,-0.50
2019-01-19T09:01:57.767Z,-0.40
2019-01-19T09:04:27.565Z,-0.30
2019-01-19T09:06:57.029Z,-0.20
2019-01-19T09:09:26.458Z,-0.10
2019-01-19T09:11:55.960Z,-0.10
2019-01-19T09:14:25.629Z,0.00
2019-01-19T09:16:55.257Z,0.10
2019-01-19T09:19:27.609Z,0.20
2019-01-19T09:21:57.035Z,0.20
2019-01-19T09:24:28.358Z,0.30
2019-01-19T09:26:57.857Z,0.30
2019-01-19T09:29:27.330Z,0.40
2019-01-19T09:31:56.832Z,0.50
2019-01-19T09:34:26.266Z,0.50
2019-01-19T09:36:55.699Z,0.60
2019-01-19T09:39:25.190Z,0.60
2019-01-19T09:41:54.585Z,0.70
2019-01-19T09:44:24.021Z,0.80
2019-01-19T09:46:53.461Z,0.90
2019-01-19T09:49:22.950Z,0.90
2019-01-19T09:51:52.377Z,1.00
2019-01-19T09:54:21.798Z,1.00
2019-01-19T09:56:51.219Z,1.10
2019-01-19T09:59:20.743Z,1.10
2019-01-19T10:01:50.426Z,1.20
2019-01-19T10:04:19.990Z,1.30
2019-01-19T10:06:49.654Z,1.30
2019-01-19T10:09:19.094Z,1.40
2019-01-19T10:11:48.525Z,1.50
2019-01-19T10:14:17.965Z,1.50
2019-01-19T10:16:47.839Z,1.50
2019-01-19T10:19:17.266Z,1.50
2019-01-19T10:21:47.128Z,1.60
2019-01-19T10:24:16.549Z,1.60
2019-01-19T10:26:46.062Z,1.60
2019-01-19T10:29:16.246Z,1.70
2019-01-19T10:31:45.708Z,1.80
2019-01-19T10:34:15.191Z,1.80
2019-01-19T10:36:44.625Z,1.90
2019-01-19T10:39:14.032Z,1.90
2019-01-19T10:41:43.492Z,1.90
2019-01-19T10:44:12.894Z,2.00
2019-01-19T10:46:42.453Z,2.00
2019-01-19T10:49:11.934Z,2.00
2019-01-19T10:51:41.356Z,2.00
2019-01-19T10:54:10.904Z,2.10
2019-01-19T10:56:40.374Z,2.10
2019-01-19T10:59:10.067Z,2.20
2019-01-19T11:01:39.483Z,2.30
2019-01-19T11:04:10.041Z,2.30
2019-01-19T11:06:39.470Z,2.30
2019-01-19T11:09:08.891Z,2.30
2019-01-19T11:11:38.433Z,2.30
2019-01-19T11:14:07.957Z,2.40
2019-01-19T11:16:37.574Z,2.40
2019-01-19T11:19:06.997Z,2.40
2019-01-19T11:21:36.444Z,2.40
2019-01-19T11:24:06.002Z,2.40
2019-01-19T11:26:35.485Z,2.50
2019-01-19T11:29:05.032Z,2.60
2019-01-19T11:31:34.463Z,2.60
2019-01-19T11:34:03.997Z,2.70
2019-01-19T11:36:33.641Z,2.80
2019-01-19T11:39:03.481Z,2.80
2019-01-19T11:41:32.889Z,2.90
2019-01-19T11:44:02.380Z,2.80
2019-01-19T11:46:31.834Z,2.80
2019-01-19T11:49:02.529Z,2.90
2019-01-19T11:51:32.014Z,2.90
2019-01-19T11:54:01.873Z,3.00
2019-01-19T11:56:31.325Z,2.90
2019-01-19T11:59:01.081Z,2.90
2019-01-19T12:01:30.608Z,2.90
2019-01-19T12:04:05.468Z,3.00
2019-01-19T12:10:17.393Z,3.00
2019-01-19T12:12:57.553Z,3.10
2019-01-19T12:15:32.786Z,3.20
2019-01-19T12:18:03.978Z,3.20
2019-01-19T12:20:40.298Z,3.30
2019-01-19T12:23:10.401Z,3.40
2019-01-19T12:25:39.906Z,3.40
2019-01-19T12:28:09.766Z,3.30
2019-01-19T12:30:39.247Z,3.30
2019-01-19T12:33:09.772Z,3.30
2019-01-19T12:35:39.307Z,3.40
2019-01-19T12:38:08.758Z,3.40
2019-01-19T12:40:38.209Z,3.40
2019-01-19T12:43:16.458Z,3.40
2019-01-19T12:45:51.273Z,3.40
2019-01-19T12:48:20.804Z,3.40
2019-01-19T12:50:52.849Z,3.30
2019-01-19T12:53:25.226Z,3.40
2019-01-19T12:55:56.266Z,3.40
2019-01-19T12:58:35.650Z,3.50
2019-01-19T13:01:07.220Z,3.50
2019-01-19T13:03:40.074Z,3.50
2019-01-19T13:06:42.770Z,3.60
2019-01-19T13:09:18.268Z,3.60
2019-01-19T13:12:10.265Z,3.50
2019-01-19T13:14:53.492Z,3.50
2019-01-19T13:17:53.713Z,3.50
2019-01-19T13:21:02.089Z,3.40
2019-01-19T13:23:49.920Z,3.40
2019-01-19T13:26:49.637Z,3.40
2019-01-19T13:30:02.528Z,3.50
2019-01-19T13:33:00.426Z,3.50
2019-01-19T13:35:55.873Z,3.50
2019-01-19T13:39:07.009Z,3.50
2019-01-19T13:42:08.193Z,3.60
2019-01-19T13:45:08.266Z,3.50
2019-01-19T13:48:27.679Z,3.50
2019-01-19T13:51:19.205Z,3.50
2019-01-19T13:54:21.570Z,3.50
2019-01-19T13:57:07.448Z,3.50
2019-01-19T14:00:06.866Z,3.50
2019-01-19T14:03:16.504Z,3.40
2019-01-19T14:06:16.714Z,3.40
2019-01-19T14:09:32.636Z,3.40
2019-01-19T14:12:16.594Z,3.40
2019-01-19T14:15:08.526Z,3.40
2019-01-19T14:18:18.275Z,3.40
2019-01-19T14:21:11.785Z,3.40
2019-01-19T14:24:13.120Z,3.40
2019-01-19T14:27:38.048Z,3.40
2019-01-19T14:30:54.328Z,3.30
2019-01-19T14:33:48.134Z,3.30
2019-01-19T14:36:52.894Z,3.10
2019-01-19T14:39:47.604Z,3.10
2019-01-19T14:42:36.629Z,3.00
2019-01-19T14:45:34.006Z,2.90
2019-01-19T14:48:31.334Z,2.90
2019-01-19T14:51:12.563Z,2.90
2019-01-19T14:53:55.186Z,2.80
2019-01-19T14:56:53.131Z,2.70
2019-01-19T14:59:30.602Z,2.70
2019-01-19T15:02:28.686Z,2.60
2019-01-19T15:05:26.085Z,2.60
2019-01-19T15:08:20.814Z,2.60
2019-01-19T15:11:46.140Z,2.60
2019-01-19T15:14:34.317Z,2.50
2019-01-19T15:17:47.033Z,2.50
2019-01-19T15:20:51.205Z,2.50
2019-01-19T15:23:39.996Z,2.40
2019-01-19T15:26:40.578Z,2.40
2019-01-19T15:29:33.933Z,2.40
2019-01-19T15:32:43.611Z,2.40
2019-01-19T15:35:44.704Z,2.20
2019-01-19T15:38:43.272Z,2.40
2019-01-19T15:41:54.732Z,2.30
2019-01-19T15:45:28.782Z,2.30
2019-01-19T15:48:43.982Z,2.20
2019-01-19T15:52:16.271Z,2.20
2019-01-19T15:55:13.190Z,2.20
2019-01-19T15:58:30.195Z,2.10
2019-01-19T16:01:41.062Z,2.00
2019-01-19T16:04:55.367Z,2.00
2019-01-19T16:08:05.216Z,1.90
2019-01-19T16:11:05.930Z,1.90
2019-01-19T16:14:34.082Z,1.80
2019-01-19T16:17:36.438Z,1.80
2019-01-19T16:20:42.535Z,1.70
2019-01-19T16:23:43.064Z,1.70
2019-01-19T16:26:46.554Z,1.60
2019-01-19T16:29:41.996Z,1.60
2019-01-19T16:32:37.932Z,1.50
2019-01-19T16:35:36.132Z,1.50
2019-01-19T16:38:43.694Z,1.50
2019-01-19T16:41:53.378Z,1.40
2019-01-19T16:45:04.533Z,1.40
2019-01-19T16:48:05.398Z,1.40
2019-01-19T16:51:21.706Z,1.40
2019-01-19T16:54:23.899Z,1.40
2019-01-19T16:57:41.093Z,1.30
2019-01-19T17:00:56.350Z,1.30
2019-01-19T17:04:05.843Z,1.30
2019-01-19T17:07:01.939Z,1.30
2019-01-19T17:09:49.728Z,1.20
2019-01-19T17:12:47.778Z,1.20
2019-01-19T17:15:48.157Z,1.10
2019-01-19T17:18:44.448Z,1.10
2019-01-19T17:22:03.843Z,1.10
2019-01-19T17:25:14.471Z,1.10
2019-01-19T17:30:53.371Z,1.10
2019-01-19T17:33:50.176Z,1.00
2019-01-19T17:36:42.034Z,1.00
2019-01-19T17:40:07.418Z,1.00
2019-01-19T17:43:20.715Z,1.00
2019-01-19T17:46:28.761Z,0.90
2019-01-19T17:49:42.810Z,0.90
2019-01-19T17:52:40.609Z,0.90
2019-01-19T17:56:05.694Z,0.80
2019-01-19T17:59:12.838Z,0.90
2019-01-19T18:02:24.722Z,0.80
2019-01-19T18:05:19.444Z,0.80
2019-01-19T18:08:33.249Z,0.80
2019-01-19T18:11:52.128Z,0.80
2019-01-19T18:15:08.167Z,0.70
2019-01-19T18:18:24.381Z,0.70
2019-01-19T18:21:29.777Z,0.60
2019-01-19T18:24:39.917Z,0.60
2019-01-19T18:27:19.597Z,0.50
2019-01-19T18:30:35.147Z,0.50
2019-01-19T18:33:13.053Z,0.50
2019-01-19T18:36:42.314Z,0.50
2019-01-19T18:39:40.870Z,0.50
2019-01-19T18:42:38.180Z,0.50
2019-01-19T18:45:57.390Z,0.40
2019-01-19T18:49:04.462Z,0.40
2019-01-19T18:52:08.062Z,0.40
2019-01-19T18:55:02.975Z,0.40
2019-01-19T18:57:56.177Z,0.40
2019-01-19T19:01:02.306Z,0.30
2019-01-19T19:04:25.242Z,0.30
2019-01-19T19:07:24.842Z,0.30
2019-01-19T19:10:19.354Z,0.30
2019-01-19T19:13:14.317Z,0.20
2019-01-19T19:16:04.282Z,0.20
2019-01-19T19:19:14.376Z,0.20
2019-01-19T19:22:04.470Z,0.20
2019-01-19T19:25:01.559Z,0.20
2019-01-19T19:28:14.670Z,0.10
2019-01-19T19:30:59.621Z,0.10
2019-01-19T19:33:45.686Z,0.10
2019-01-19T19:36:59.117Z,0.00
2019-01-19T19:40:09.730Z,0.00
2019-01-19T19:42:49.282Z,-0.10
2019-01-19T19:45:52.573Z,-0.10
2019-01-19T19:48:54.250Z,-0.10
2019-01-19T19:52:01.451Z,-0.20
2019-01-19T19:54:32.641Z,-0.20
2019-01-19T19:57:02.082Z,-0.20
2019-01-19T19:59:31.591Z,-0.30
2019-01-19T20:02:01.073Z,-0.30
2019-01-19T20:04:30.861Z,-0.30
2019-01-19T20:07:00.599Z,-0.30
2019-01-19T20:09:30.381Z,-0.30
2019-01-19T20:12:05.939Z,-0.40
2019-01-19T20:14:36.713Z,-0.40
2019-01-19T20:17:06.485Z,-0.40
2019-01-19T20:19:35.945Z,-0.40
2019-01-19T20:22:05.459Z,-0.40
2019-01-19T20:24:34.913Z,-0.40
2019-01-19T20:27:04.365Z,-0.40
2019-01-19T20:29:33.830Z,-0.40
2019-01-19T20:32:04.349Z,-0.40
2019-01-19T20:34:33.774Z,-0.40
2019-01-19T20:37:03.205Z,-0.50
2019-01-19T20:39:32.640Z,-0.50
2019-01-19T20:42:02.192Z,-0.50
2019-01-19T20:44:31.611Z,-0.50
2019-01-19T20:47:01.034Z,-0.50
2019-01-19T20:49:30.518Z,-0.50
2019-01-19T20:52:00.026Z,-0.50
2019-01-19T20:54:29.446Z,-0.60
2019-01-19T20:56:58.897Z,-0.60
2019-01-19T20:59:28.385Z,-0.60
2019-01-19T21:01:58.171Z,-0.60
2019-01-19T21:04:27.652Z,-0.60
2019-01-19T21:06:57.126Z,-0.60
2019-01-19T21:09:26.567Z,-0.70
2019-01-19T21:12:07.346Z,-0.70
2019-01-19T21:14:37.901Z,-0.70
2019-01-19T21:17:07.329Z,-0.70
2019-01-19T21:19:37.726Z,-0.70
2019-01-19T21:22:07.150Z,-0.70
2019-01-19T21:24:36.642Z,-0.80
2019-01-19T21:27:06.111Z,-0.80
2019-01-19T21:29:35.751Z,-0.80
2019-01-19T21:32:05.366Z,-0.80
2019-01-19T21:34:34.809Z,-0.90
2019-01-19T21:37:04.242Z,-0.90
2019-01-19T21:39:33.679Z,-0.90
2019-01-19T21:42:03.150Z,-0.90
2019-01-19T21:44:32.676Z,-0.90
2019-01-19T21:47:02.151Z,-0.90
2019-01-19T21:49:32.562Z,-0.90
2019-01-19T21:52:02.041Z,-1.00
2019-01-19T21:54:31.473Z,-1.00
2019-01-19T21:57:04.093Z,-1.00
2019-01-19T21:59:33.752Z,-1.00
2019-01-19T22:02:03.812Z,-1.00
2019-01-19T22:04:33.283Z,-1.00
2019-01-19T22:07:02.770Z,-1.00
2019-01-19T22:09:32.253Z,-1.00
2019-01-19T22:12:01.770Z,-1.00
2019-01-19T22:14:31.317Z,-1.10
2019-01-19T22:17:00.754Z,-1.10
2019-01-19T22:19:30.192Z,-1.10
2019-01-19T22:21:59.623Z,-1.10
2019-01-19T22:24:29.107Z,-1.10
2019-01-19T22:26:58.815Z,-1.10
2019-01-19T22:29:28.573Z,-1.10
2019-01-19T22:31:58.337Z,-1.20
2019-01-19T22:34:27.798Z,-1.20
2019-01-19T22:36:57.558Z,-1.20
2019-01-19T22:39:26.973Z,-1.30
2019-01-19T22:41:56.424Z,-1.30
2019-01-19T22:44:30.338Z,-1.30
2019-01-19T22:47:00.250Z,-1.30
2019-01-19T22:49:29.793Z,-1.30
2019-01-19T22:51:59.219Z,-1.30
2019-01-19T22:54:28.686Z,-1.40
2019-01-19T22:56:58.291Z,-1.40
2019-01-19T22:59:27.738Z,-1.40
2019-01-19T23:02:00.176Z,-1.40
2019-01-19T23:04:29.634Z,-1.40
2019-01-19T23:06:59.103Z,-1.40
2019-01-19T23:09:28.537Z,-1.50
2019-01-19T23:12:05.752Z,-1.50
2019-01-19T23:14:36.073Z,-1.50
2019-01-19T23:17:05.578Z,-1.50
2019-01-19T23:19:35.010Z,-1.60
2019-01-19T23:22:04.481Z,-1.60
2019-01-19T23:24:33.940Z,-1.70
2019-01-19T23:27:07.264Z,-1.70
2019-01-19T23:29:36.785Z,-1.70
2019-01-19T23:32:06.245Z,-1.80
2019-01-19T23:34:35.689Z,-1.80
2019-01-19T23:37:05.132Z,-1.80
2019-01-19T23:39:34.553Z,-1.80
2019-01-19T23:42:04.510Z,-1.80
2019-01-19T23:44:34.014Z,-1.80
2019-01-19T23:47:03.461Z,-1.80
2019-01-19T23:49:32.926Z,-1.80
2019-01-19T23:52:02.360Z,-1.80
2019-01-19T23:54:31.802Z,-1.80
2019-01-19T23:57:02.601Z,-1.80
2019-01-19T23:59:32.263Z,-1.80
